Time;durP1;ratioP1;P1;durP2;ratioP2;P2;SDS_P1;SDS_P2;PMS_P1;PMS_P2;Temp;Humidity;BMP_temperature;BMP_pressure;BME280_temperature;BME280_humidity;BME280_pressure;Samples;Min_cycle;Max_cycle;Signal;HPM_P1;HPM_P2
2022/12/11 00:02:01;;;;;;;0.38;0.28;;;;;;;2.66;100.00;97651.75;6373764;27;20122;-76
2022/12/11 00:05:02;;;;;;;2.25;0.85;;;;;;;2.54;100.00;97658.59;6373709;27;20061;-76
2022/12/11 00:08:03;;;;;;;0.67;0.40;;;;;;;2.39;100.00;97656.09;6374026;27;20032;-76
2022/12/11 00:11:07;;;;;;;0.60;0.52;;;;;;;2.52;100.00;97652.72;6389336;27;20567;-77
2022/12/11 00:14:08;;;;;;;0.40;0.40;;;;;;;2.57;100.00;97656.63;6373506;27;20449;-76
2022/12/11 00:17:09;;;;;;;0.75;0.35;;;;;;;2.66;100.00;97644.03;6372306;27;20063;-76
2022/12/11 00:20:10;;;;;;;1.38;1.15;;;;;;;2.45;100.00;97642.00;6372179;27;20114;-76
2022/12/11 00:23:11;;;;;;;0.50;0.43;;;;;;;2.45;100.00;97629.13;6373316;27;20043;-76
2022/12/11 00:26:14;;;;;;;0.40;0.38;;;;;;;2.32;100.00;97620.56;6354847;27;20517;-76
2022/12/11 00:29:15;;;;;;;2.25;0.80;;;;;;;2.45;100.00;97623.97;6371915;27;20050;-76
2022/12/11 00:32:15;;;;;;;0.17;0.17;;;;;;;2.37;100.00;97618.53;6371974;27;20758;-76
2022/12/11 00:35:16;;;;;;;0.30;0.30;;;;;;;2.43;100.00;97612.97;6372060;27;20075;-76
2022/12/11 00:38:20;;;;;;;0.30;0.28;;;;;;;2.30;100.00;97599.25;6372443;27;20039;-76
2022/12/11 00:41:21;;;;;;;0.20;0.20;;;;;;;2.31;100.00;97598.34;6371734;27;20047;-76
2022/12/11 00:44:22;;;;;;;0.28;0.28;;;;;;;2.23;100.00;97591.13;6371624;27;20093;-76
2022/12/11 00:47:22;;;;;;;0.30;0.30;;;;;;;2.22;100.00;97589.47;6371693;27;20097;-76
2022/12/11 00:50:23;;;;;;;0.30;0.30;;;;;;;2.45;100.00;97600.81;6371560;27;20047;-76
2022/12/11 00:53:25;;;;;;;0.70;0.60;;;;;;;2.33;100.00;97591.34;6372747;27;20077;-76
2022/12/11 00:56:25;;;;;;;0.20;0.20;;;;;;;2.33;100.00;97578.47;6373205;27;20039;-76
2022/12/11 00:59:27;;;;;;;0.20;0.20;;;;;;;2.15;100.00;97567.66;6372607;27;20543;-76
2022/12/11 01:02:28;;;;;;;0.70;0.50;;;;;;;2.19;100.00;97577.63;6372559;27;20043;-76
2022/12/11 01:05:29;;;;;;;0.82;0.47;;;;;;;2.27;100.00;97571.16;6372383;27;20046;-74
2022/12/11 01:08:30;;;;;;;0.52;0.52;;;;;;;2.15;100.00;97571.03;6405426;27;20402;-74
2022/12/11 01:11:31;;;;;;;1.50;1.00;;;;;;;2.20;100.00;97566.44;6371227;27;20471;-74
2022/12/11 01:14:32;;;;;;;0.52;0.52;;;;;;;1.96;100.00;97566.28;6371011;27;20067;-76
2022/12/11 01:17:35;;;;;;;0.30;0.30;;;;;;;2.22;100.00;97561.16;6372210;27;20501;-76
2022/12/11 01:20:38;;;;;;;0.30;0.30;;;;;;;2.22;100.00;97558.59;6372159;27;20065;-76
2022/12/11 01:23:39;;;;;;;0.13;0.13;;;;;;;2.23;100.00;97562.81;6372043;27;20043;-76
2022/12/11 01:26:40;;;;;;;0.52;0.40;;;;;;;2.12;100.00;97560.97;6371103;28;20047;-76
2022/12/11 01:29:41;;;;;;;0.35;0.35;;;;;;;2.01;100.00;97548.78;6370996;28;20043;-76
2022/12/11 01:32:41;;;;;;;0.22;0.22;;;;;;;2.13;100.00;97559.22;6372064;28;20047;-76
2022/12/11 01:35:42;;;;;;;0.52;0.52;;;;;;;2.16;100.00;97552.13;6372057;28;20050;-76
2022/12/11 01:38:44;;;;;;;1.85;0.45;;;;;;;1.96;100.00;97547.47;6371918;28;20039;-74
2022/12/11 01:41:45;;;;;;;0.45;0.45;;;;;;;1.87;100.00;97554.00;6370839;28;20045;-76
2022/12/11 01:44:45;;;;;;;0.30;0.30;;;;;;;2.01;100.00;97541.06;6371862;28;20036;-76
2022/12/11 01:48:20;;;;;;;0.52;0.52;;;;;;;1.97;100.00;97536.25;6370950;27;20084;-76
2022/12/11 01:51:22;;;;;;;0.30;0.30;;;;;;;1.98;100.00;97543.88;6375636;27;20513;-76
2022/12/11 01:54:26;;;;;;;0.45;0.45;;;;;;;1.92;100.00;97528.03;6375916;27;20039;-76
2022/12/11 01:57:27;;;;;;;0.30;0.30;;;;;;;1.80;100.00;97517.59;6375694;27;20088;-76
2022/12/11 02:00:28;;;;;;;0.20;0.20;;;;;;;1.75;100.00;97508.53;6376814;27;20039;-76
2022/12/11 02:03:28;;;;;;;0.55;0.47;;;;;;;1.90;100.00;97506.72;6375464;27;20046;-76
2022/12/11 02:06:36;;;;;;;0.40;0.40;;;;;;;1.73;100.00;97494.97;6376825;27;20046;-76
2022/12/11 02:09:39;;;;;;;0.40;0.40;;;;;;;1.66;100.00;97481.69;6375214;27;20070;-76
2022/12/11 02:12:47;;;;;;;2.72;0.63;;;;;;;1.73;100.00;97485.53;6376572;27;20043;-76
2022/12/11 02:15:53;;;;;;;0.85;0.68;;;;;;;1.56;100.00;97475.50;6376503;27;20039;-76
2022/12/11 02:19:21;;;;;;;0.45;0.43;;;;;;;1.58;100.00;97474.47;6358065;27;20419;-76
2022/12/11 02:22:49;;;;;;;0.88;0.40;;;;;;;1.65;100.00;97468.94;6354708;27;20051;-75
2022/12/11 02:26:06;;;;;;;0.28;0.28;;;;;;;1.59;100.00;97470.19;6375132;27;20070;-76
2022/12/11 02:29:16;;;;;;;0.25;0.25;;;;;;;1.63;100.00;97463.91;6376262;27;20061;-76
2022/12/11 02:32:42;;;;;;;0.30;0.30;;;;;;;1.47;100.00;97453.00;6376175;27;20043;-76
2022/12/11 02:35:45;;;;;;;0.45;0.43;;;;;;;1.56;100.00;97481.47;6375996;27;20471;-75
2022/12/11 02:38:50;;;;;;;0.25;0.25;;;;;;;1.65;100.00;97480.06;6374755;27;20608;-75
2022/12/11 02:41:51;;;;;;;0.75;0.65;;;;;;;1.60;100.00;97454.63;6374692;27;20494;-76
2022/12/11 02:44:53;;;;;;;0.10;0.10;;;;;;;1.63;100.00;97453.63;6375660;27;20057;-76
2022/12/11 02:47:57;;;;;;;0.40;0.40;;;;;;;1.50;100.00;97442.50;6375799;27;20074;-76
2022/12/11 02:51:00;;;;;;;0.30;0.30;;;;;;;1.68;100.00;97436.16;6375594;27;20053;-76
2022/12/11 02:54:02;;;;;;;0.32;0.32;;;;;;;1.48;100.00;97428.94;6374326;27;20168;-76
2022/12/11 02:57:10;;;;;;;0.10;0.10;;;;;;;1.51;100.00;97434.69;6375622;27;20122;-76
2022/12/11 03:00:12;;;;;;;0.65;0.60;;;;;;;1.37;100.00;97416.78;6374603;27;20077;-73
2022/12/11 03:03:13;;;;;;;0.30;0.30;;;;;;;1.46;100.00;97418.75;6374145;27;20043;-73
2022/12/11 03:06:19;;;;;;;0.75;0.40;;;;;;;1.57;100.00;97418.06;6373974;27;20071;-74
2022/12/11 03:09:21;;;;;;;0.30;0.30;;;;;;;1.41;100.00;97410.53;6373846;27;20422;-73
2022/12/11 03:12:28;;;;;;;0.30;0.30;;;;;;;1.48;100.00;97421.22;6373843;27;20043;-73
2022/12/11 03:15:54;;;;;;;0.20;0.20;;;;;;;1.33;100.00;97413.59;6375007;27;20054;-74
2022/12/11 03:19:06;;;;;;;0.28;0.28;;;;;;;1.57;100.00;97406.03;6362965;27;20066;-73
2022/12/11 03:22:16;;;;;;;0.32;0.30;;;;;;;1.43;100.00;97395.84;6373562;27;20082;-74
2022/12/11 03:25:24;;;;;;;0.63;0.50;;;;;;;1.38;100.00;97380.72;6373470;27;20039;-74
2022/12/11 03:28:30;;;;;;;0.30;0.30;;;;;;;1.51;100.00;97387.63;6374742;27;20035;-74
2022/12/11 03:32:02;;;;;;;0.30;0.30;;;;;;;1.39;100.00;97377.22;6356143;27;20054;-73
2022/12/11 03:35:13;;;;;;;0.20;0.20;;;;;;;1.56;100.00;97375.28;6368428;27;20059;-73
2022/12/11 03:38:22;;;;;;;0.10;0.10;;;;;;;1.38;100.00;97354.19;6373343;27;20114;-73
2022/12/11 03:41:26;;;;;;;0.10;0.10;;;;;;;1.38;100.00;97354.19;6374253;27;20043;-73
2022/12/11 03:44:28;;;;;;;0.30;0.30;;;;;;;1.19;100.00;97373.41;6374254;27;20062;-73
2022/12/11 03:47:31;;;;;;;0.25;0.25;;;;;;;1.27;100.00;97388.31;6374268;27;20148;-73
2022/12/11 03:50:34;;;;;;;0.43;0.43;;;;;;;1.38;100.00;97385.88;6355752;27;20061;-74
2022/12/11 03:53:36;;;;;;;0.47;0.22;;;;;;;1.40;100.00;97378.03;6373916;27;20043;-73
2022/12/11 03:56:39;;;;;;;0.17;0.17;;;;;;;1.44;100.00;97373.53;6373929;27;20032;-73
2022/12/11 03:59:40;;;;;;;0.10;0.10;;;;;;;1.42;100.00;97365.91;6355385;27;20057;-74
2022/12/11 04:02:42;;;;;;;0.20;0.20;;;;;;;1.46;100.00;97372.50;6372662;27;20039;-74
2022/12/11 04:05:48;;;;;;;0.10;0.10;;;;;;;1.51;100.00;97367.88;6373708;27;20039;-73
2022/12/11 04:08:49;;;;;;;0.63;0.45;;;;;;;1.46;100.00;97340.84;6372246;27;20055;-73
2022/12/11 04:11:50;;;;;;;5.72;0.52;;;;;;;1.39;100.00;97348.13;6373432;27;20061;-73
2022/12/11 04:15:02;;;;;;;0.17;0.17;;;;;;;1.23;100.00;97334.66;6373385;27;20380;-73
2022/12/11 04:24:43;;;;;;;0.32;0.30;;;;;;;1.00;100.00;97348.09;6373279;27;20039;-74
2022/12/11 04:27:49;;;;;;;0.40;0.30;;;;;;;1.02;100.00;97376.25;6371956;27;20043;-74
2022/12/11 04:30:50;;;;;;;1.85;0.50;;;;;;;1.10;100.00;97368.88;6373131;27;20549;-74
2022/12/11 04:33:53;;;;;;;0.35;0.35;;;;;;;0.96;100.00;97363.81;6372973;27;20040;-73
2022/12/11 04:36:53;;;;;;;0.10;0.10;;;;;;;0.97;100.00;97373.97;6373011;27;20084;-73
2022/12/11 04:39:54;;;;;;;0.40;0.40;;;;;;;0.98;100.00;97372.22;6354305;27;20138;-73
2022/12/11 04:42:55;;;;;;;0.30;0.30;;;;;;;0.83;100.00;97399.72;6372904;27;20050;-74
2022/12/11 04:46:18;;;;;;;0.85;0.35;;;;;;;0.84;100.00;97421.06;6372691;27;20066;-74
2022/12/11 04:49:19;;;;;;;0.32;0.32;;;;;;;0.88;100.00;97443.88;6371578;27;20042;-73
2022/12/11 04:52:20;;;;;;;0.60;0.60;;;;;;;1.16;100.00;97458.38;6372685;27;20047;-73
2022/12/11 04:55:21;;;;;;;0.68;0.35;;;;;;;1.16;100.00;97444.72;6371358;27;20035;-73
2022/12/11 04:58:23;;;;;;;0.40;0.40;;;;;;;0.86;100.00;97411.53;6372493;27;20039;-74
2022/12/11 05:01:24;;;;;;;0.20;0.20;;;;;;;0.82;100.00;97390.34;6372452;27;20035;-74
2022/12/11 05:04:25;;;;;;;0.38;0.38;;;;;;;0.75;100.00;97420.72;6405878;27;20050;-74
2022/12/11 05:07:25;;;;;;;0.28;0.28;;;;;;;0.85;100.00;97431.25;6372410;27;20070;-73
2022/12/11 05:10:26;;;;;;;0.13;0.13;;;;;;;0.88;100.00;97433.59;6371027;27;20494;-74
2022/12/11 05:13:28;;;;;;;0.20;0.20;;;;;;;0.88;100.00;97443.06;6372258;27;20043;-74
2022/12/11 05:16:29;;;;;;;1.50;0.40;;;;;;;0.79;100.00;97436.78;6371155;27;20297;-78
2022/12/11 05:19:30;;;;;;;0.20;0.20;;;;;;;0.82;100.00;97438.31;6370970;27;20507;-76
2022/12/11 05:22:30;;;;;;;0.30;0.30;;;;;;;0.85;100.00;97464.63;6372166;27;20039;-73
2022/12/11 05:25:31;;;;;;;0.50;0.50;;;;;;;0.90;100.00;97477.16;6370633;28;20043;-74
2022/12/11 05:28:34;;;;;;;0.20;0.20;;;;;;;0.87;100.00;97478.19;6353749;28;20054;-74
2022/12/11 05:31:35;;;;;;;0.20;0.20;;;;;;;0.92;100.00;97494.13;6370841;28;20043;-74
2022/12/11 05:34:36;;;;;;;0.28;0.28;;;;;;;0.84;100.00;97491.19;6405471;27;20095;-74
2022/12/11 05:37:37;;;;;;;0.65;0.45;;;;;;;1.02;100.00;97504.63;6353542;28;20043;-74
2022/12/11 05:40:37;;;;;;;4.00;0.57;;;;;;;1.12;100.00;97507.47;6371951;27;20046;-74
2022/12/11 05:43:38;;;;;;;0.63;0.22;;;;;;;1.05;100.00;97498.47;6371965;27;20054;-73
2022/12/11 05:46:39;;;;;;;0.28;0.28;;;;;;;0.94;100.00;97499.97;6371804;27;20448;-74
2022/12/11 05:49:43;;;;;;;0.73;0.40;;;;;;;1.09;100.00;97508.50;6370742;28;20039;-73
2022/12/11 05:52:44;;;;;;;1.35;0.77;;;;;;;1.11;100.00;97509.22;6371804;27;20039;-74
2022/12/11 05:55:44;;;;;;;0.10;0.10;;;;;;;1.20;100.00;97502.66;6371732;27;20123;-74
2022/12/11 05:58:46;;;;;;;0.20;0.20;;;;;;;1.20;100.00;97505.22;6371740;27;20043;-74
2022/12/11 06:01:47;;;;;;;0.17;0.17;;;;;;;1.24;100.00;97509.25;6370456;28;20047;-74
2022/12/11 06:04:48;;;;;;;0.20;0.20;;;;;;;1.24;100.00;97511.00;6370515;28;20050;-77
2022/12/11 06:07:48;;;;;;;1.90;0.35;;;;;;;1.24;100.00;97522.09;6371821;28;20068;-76
2022/12/11 06:10:49;;;;;;;0.17;0.17;;;;;;;1.34;100.00;97542.88;6353104;28;20055;-76
2022/12/11 06:13:51;;;;;;;0.40;0.35;;;;;;;1.26;100.00;97545.13;6370472;28;20440;-73
2022/12/11 06:16:52;;;;;;;0.13;0.13;;;;;;;1.25;100.00;97543.47;6371605;28;20035;-77
2022/12/11 06:19:53;;;;;;;0.20;0.20;;;;;;;1.26;100.00;97560.53;6371537;28;20039;-76
2022/12/11 06:22:53;;;;;;;0.95;0.47;;;;;;;1.18;100.00;97559.25;6371653;28;20035;-76
2022/12/11 06:25:54;;;;;;;0.22;0.20;;;;;;;1.30;100.00;97554.28;6370229;28;20046;-74
2022/12/11 06:28:55;;;;;;;0.45;0.38;;;;;;;1.21;100.00;97568.53;6370003;28;20047;-74
2022/12/11 06:31:55;;;;;;;0.75;0.63;;;;;;;1.30;100.00;97588.50;6370389;28;20379;-74
2022/12/11 06:34:56;;;;;;;0.20;0.20;;;;;;;1.27;100.00;97587.88;6371462;27;20049;-75
2022/12/11 06:37:57;;;;;;;0.47;0.45;;;;;;;1.49;100.00;97615.63;6375968;27;20402;-76
2022/12/11 06:41:03;;;;;;;0.20;0.20;;;;;;;1.45;100.00;97632.97;6374669;27;20043;-76
2022/12/11 06:44:04;;;;;;;0.57;0.35;;;;;;;1.49;100.00;97644.72;6374623;27;20039;-74
2022/12/11 06:47:04;;;;;;;0.40;0.40;;;;;;;1.60;100.00;97656.88;6374439;27;20126;-74
2022/12/11 06:50:06;;;;;;;0.70;0.57;;;;;;;1.60;100.00;97683.41;6357223;27;20047;-74
2022/12/11 06:53:06;;;;;;;0.65;0.65;;;;;;;1.83;100.00;97690.59;6375545;27;20402;-74
2022/12/11 06:56:13;;;;;;;1.02;0.80;;;;;;;1.94;100.00;97688.19;6375598;27;20066;-73
2022/12/11 06:59:13;;;;;;;1.00;0.90;;;;;;;1.79;100.00;97698.53;6374131;27;20116;-74
2022/12/11 07:02:16;;;;;;;3.40;0.70;;;;;;;1.59;100.00;97716.94;6408666;27;20063;-73
2022/12/11 07:05:18;;;;;;;0.93;0.75;;;;;;;1.80;100.00;97731.03;6375192;27;20043;-74
2022/12/11 07:08:19;;;;;;;3.50;2.05;;;;;;;1.76;100.00;97751.88;6374030;27;20050;-74
2022/12/11 07:11:20;;;;;;;2.42;1.42;;;;;;;1.69;100.00;97738.59;6373893;27;20510;-77
2022/12/11 07:14:21;;;;;;;1.15;1.05;;;;;;;1.41;100.00;97722.28;6374205;27;20036;-77
2022/12/11 07:17:22;;;;;;;1.05;0.70;;;;;;;1.41;100.00;97732.56;6373786;27;20039;-74
2022/12/11 07:20:24;;;;;;;2.63;1.20;;;;;;;1.09;100.00;97747.34;6407872;27;20095;-74
2022/12/11 07:23:27;;;;;;;4.03;1.30;;;;;;;0.73;100.00;97761.41;6356414;27;20047;-74
2022/12/11 07:26:28;;;;;;;0.73;0.73;;;;;;;0.71;100.00;97773.50;6374806;27;20471;-76
2022/12/11 07:29:28;;;;;;;0.82;0.55;;;;;;;0.87;100.00;97788.03;6356254;27;20061;-76
2022/12/11 07:32:29;;;;;;;0.63;0.60;;;;;;;0.77;100.00;97796.25;6374661;27;20039;-76
2022/12/11 07:35:30;;;;;;;0.85;0.65;;;;;;;0.98;100.00;97808.75;6407985;27;20071;-76
2022/12/11 07:38:31;;;;;;;4.10;2.05;;;;;;;0.88;100.00;97828.19;6373397;27;20301;-76
2022/12/11 07:41:32;;;;;;;4.57;1.52;;;;;;;0.73;100.00;97837.59;6373254;27;20673;-76
2022/12/11 07:44:33;;;;;;;2.10;1.13;;;;;;;0.56;100.00;97852.19;6374555;27;20126;-76
2022/12/11 07:47:33;;;;;;;2.45;1.40;;;;;;;0.55;100.00;97855.66;6372494;27;20510;-78
2022/12/11 07:50:34;;;;;;;0.47;0.47;;;;;;;0.62;100.00;97866.44;6374322;27;20047;-76
2022/12/11 07:53:35;;;;;;;0.35;0.35;;;;;;;0.54;100.00;97877.09;6407942;27;20134;-76
2022/12/11 07:56:35;;;;;;;1.23;0.73;;;;;;;0.52;100.00;97878.09;6372685;27;20140;-74
2022/12/11 07:59:36;;;;;;;1.40;1.30;;;;;;;0.69;100.00;97890.00;6373772;27;20039;-76
2022/12/11 08:02:37;;;;;;;3.75;1.02;;;;;;;0.63;100.00;97892.91;6372839;27;20038;-76
2022/12/11 08:05:38;;;;;;;0.80;0.68;;;;;;;0.70;100.00;97901.91;6372841;27;20490;-76
2022/12/11 08:08:40;;;;;;;1.10;0.80;;;;;;;0.68;100.00;97924.28;6373776;27;20039;-76
2022/12/11 08:11:41;;;;;;;6.82;2.30;;;;;;;0.52;100.00;97927.69;6372496;27;20513;-76
2022/12/11 08:14:41;;;;;;;2.28;1.20;;;;;;;0.72;100.00;97923.19;6372468;27;20035;-73
2022/12/11 08:17:44;;;;;;;1.13;1.02;;;;;;;0.80;100.00;97934.72;6372341;27;20043;-74
2022/12/11 08:20:46;;;;;;;3.13;0.95;;;;;;;0.73;100.00;97946.22;6373304;27;20038;-74
2022/12/11 08:23:49;;;;;;;0.63;0.38;;;;;;;0.69;100.00;97936.22;6372199;27;20055;-76
2022/12/11 08:26:52;;;;;;;0.30;0.30;;;;;;;0.72;100.00;97936.03;6373316;27;20039;-74
2022/12/11 08:29:53;;;;;;;0.43;0.43;;;;;;;0.61;100.00;97946.88;6373216;27;20047;-74
2022/12/11 08:32:54;;;;;;;0.30;0.30;;;;;;;0.75;100.00;97949.53;6371863;27;20046;-74
2022/12/11 08:35:54;;;;;;;0.20;0.20;;;;;;;0.77;100.00;97963.13;6373166;27;20116;-76
2022/12/11 08:38:55;;;;;;;0.60;0.60;;;;;;;0.76;100.00;97971.75;6371809;27;20067;-74
2022/12/11 08:41:56;;;;;;;0.70;0.57;;;;;;;0.89;100.00;97987.31;6372875;27;20037;-74
2022/12/11 08:44:57;;;;;;;1.02;0.68;;;;;;;0.89;100.00;98000.13;6372535;27;20062;-74
2022/12/11 08:47:59;;;;;;;0.68;0.63;;;;;;;0.86;100.00;98008.00;6371563;27;20118;-77
2022/12/11 08:51:00;;;;;;;0.55;0.55;;;;;;;0.95;100.00;98019.53;6371642;27;20043;-74
2022/12/11 08:54:01;;;;;;;0.23;0.23;;;;;;;0.80;100.00;98018.59;6372737;27;20042;-74
2022/12/11 08:57:02;;;;;;;2.17;0.95;;;;;;;0.55;100.00;98024.22;6372968;27;20035;-74
2022/12/11 09:00:03;;;;;;;2.15;0.32;;;;;;;0.39;100.00;98048.13;6370269;27;20043;-74
2022/12/11 09:03:04;;;;;;;2.13;1.00;;;;;;;0.58;100.00;98062.56;6371326;27;20433;-74
2022/12/11 09:06:06;;;;;;;1.75;0.70;;;;;;;0.27;100.00;98061.56;6372330;27;20047;-74
2022/12/11 09:09:07;;;;;;;0.90;0.73;;;;;;;0.10;100.00;98064.97;6371142;27;20056;-74
2022/12/11 09:12:08;;;;;;;1.85;0.77;;;;;;;0.41;100.00;98078.81;6371238;27;20070;-77
2022/12/11 09:15:09;;;;;;;0.60;0.60;;;;;;;0.45;100.00;98087.19;6371122;27;20483;-74
2022/12/11 09:18:10;;;;;;;1.65;0.93;;;;;;;0.35;100.00;98087.66;6372156;27;20049;-76
2022/12/11 09:21:13;;;;;;;1.17;1.05;;;;;;;0.46;100.00;98104.25;6370858;27;20437;-77
2022/12/11 09:24:14;;;;;;;2.17;1.60;;;;;;;0.62;100.00;98083.75;6371226;27;20429;-77
2022/12/11 09:27:15;;;;;;;1.17;1.00;;;;;;;0.27;100.00;98105.19;6371058;28;20126;-77
2022/12/11 09:30:16;;;;;;;1.42;0.90;;;;;;;0.56;100.00;98100.31;6372218;27;20059;-74
2022/12/11 09:33:17;;;;;;;0.90;0.90;;;;;;;0.60;100.00;98118.03;6353667;28;20054;-74
2022/12/11 09:36:18;;;;;;;1.30;0.77;;;;;;;0.71;100.00;98120.03;6370871;28;20043;-74
2022/12/11 09:39:19;;;;;;;2.22;1.33;;;;;;;0.66;100.00;98123.75;6370593;28;20054;-75
2022/12/11 09:42:29;;;;;;;0.68;0.63;;;;;;;0.63;100.00;98129.88;6370646;28;20043;-74
2022/12/11 09:45:31;;;;;;;1.05;0.90;;;;;;;0.53;100.00;98144.06;6353471;28;20487;-74
2022/12/11 09:48:33;;;;;;;0.95;0.90;;;;;;;0.72;100.00;98137.13;6370594;28;20544;-75
2022/12/11 09:51:46;;;;;;;0.63;0.57;;;;;;;0.77;100.00;98137.69;6371904;27;20617;-74
2022/12/11 09:54:51;;;;;;;0.52;0.50;;;;;;;0.74;100.00;98143.00;6370653;28;20039;-74
2022/12/11 09:58:13;;;;;;;1.58;1.25;;;;;;;0.89;100.00;98148.25;6370711;28;20046;-74
2022/12/11 10:01:25;;;;;;;1.95;0.93;;;;;;;0.94;100.00;98152.22;6370370;28;20039;-74
2022/12/11 10:04:41;;;;;;;0.77;0.60;;;;;;;0.83;100.00;98166.53;6371895;27;20039;-74
2022/12/11 10:07:51;;;;;;;1.38;0.68;;;;;;;0.92;100.00;98168.63;6370644;28;20105;-74
2022/12/11 10:11:01;;;;;;;1.92;1.42;;;;;;;1.16;100.00;98171.66;6390684;27;20062;-74
2022/12/11 10:14:11;;;;;;;2.25;0.95;;;;;;;1.03;100.00;98179.19;6375439;27;20039;-74
2022/12/11 10:17:18;;;;;;;5.18;2.22;;;;;;;1.14;100.00;98176.03;6392388;27;20487;-74
2022/12/11 10:20:34;;;;;;;1.98;1.40;;;;;;;1.11;100.00;98169.34;6375266;27;20114;-74
2022/12/11 10:23:53;;;;;;;2.17;1.48;;;;;;;1.18;100.00;98177.53;6375070;27;20119;-74
2022/12/11 10:26:57;;;;;;;1.13;0.98;;;;;;;1.43;100.00;98189.91;6375031;27;20043;-74
2022/12/11 10:30:03;;;;;;;1.65;0.98;;;;;;;1.29;100.00;98205.22;6357605;27;20073;-75
2022/12/11 10:33:28;;;;;;;4.07;2.53;;;;;;;1.31;100.00;98209.38;6392011;27;20135;-75
2022/12/11 10:36:30;;;;;;;4.95;1.55;;;;;;;1.18;100.00;98224.63;6374785;27;20039;-75
2022/12/11 10:39:30;;;;;;;4.50;1.92;;;;;;;1.26;100.00;98221.66;6375885;27;20114;-74
2022/12/11 10:42:33;;;;;;;1.60;1.23;;;;;;;1.29;100.00;98236.88;6374563;27;20409;-76
2022/12/11 10:45:35;;;;;;;2.85;2.00;;;;;;;1.35;100.00;98230.59;6374802;27;20062;-76
2022/12/11 10:48:54;;;;;;;1.60;1.30;;;;;;;1.31;100.00;98234.25;6375741;27;20035;-76
2022/12/11 10:51:56;;;;;;;0.73;0.73;;;;;;;1.33;100.00;98238.38;6357749;27;20055;-76
2022/12/11 10:55:03;;;;;;;1.92;1.17;;;;;;;1.34;100.00;98239.22;6374506;27;20422;-76
2022/12/11 10:58:05;;;;;;;2.70;1.50;;;;;;;1.47;100.00;98234.28;6357101;27;20134;-76
2022/12/11 11:01:14;;;;;;;5.63;1.92;;;;;;;1.45;100.00;98241.25;6375351;27;20035;-76
2022/12/11 11:04:22;;;;;;;6.05;2.53;;;;;;;1.67;100.00;98238.34;6357093;27;20047;-76
2022/12/11 11:07:24;;;;;;;1.65;1.50;;;;;;;1.60;100.00;98236.09;6374155;27;20394;-76
2022/12/11 11:10:24;;;;;;;2.77;1.33;;;;;;;1.69;100.00;98239.09;6375097;27;20047;-75
2022/12/11 11:13:29;;;;;;;1.80;1.42;;;;;;;1.82;100.00;98229.81;6375043;27;20279;-75
2022/12/11 11:16:30;;;;;;;1.83;1.52;;;;;;;1.75;100.00;98237.03;6375084;27;20039;-74
2022/12/11 11:19:35;;;;;;;6.65;2.70;;;;;;;1.76;100.00;98225.81;6373504;27;20051;-75
2022/12/11 11:22:42;;;;;;;2.13;1.30;;;;;;;1.97;100.00;98233.28;6372869;27;20118;-74
2022/12/11 11:25:55;;;;;;;4.47;1.98;;;;;;;2.03;100.00;98239.84;6373734;27;20388;-75
2022/12/11 11:28:56;;;;;;;3.45;1.40;;;;;;;2.22;100.00;98235.31;6374804;27;20092;-74
2022/12/11 11:32:13;;;;;;;3.30;1.92;;;;;;;2.21;100.00;98241.41;6374579;27;20448;-74
2022/12/11 11:35:20;;;;;;;3.55;2.17;;;;;;;2.18;100.00;98250.13;6356261;27;20047;-74
2022/12/11 11:38:25;;;;;;;3.67;1.65;;;;;;;2.26;100.00;98259.16;6373079;27;20061;-75
2022/12/11 11:42:00;;;;;;;3.95;2.08;;;;;;;2.03;100.00;98263.00;6374342;27;20376;-75
2022/12/11 11:45:19;;;;;;;2.58;1.90;;;;;;;2.17;100.00;98266.47;6390251;27;20051;-76
2022/12/11 11:48:29;;;;;;;1.38;1.00;;;;;;;2.13;100.00;98269.31;6355905;27;20470;-75
2022/12/11 11:51:35;;;;;;;4.18;1.58;;;;;;;2.26;100.00;98269.44;6372946;27;20061;-74
2022/12/11 11:54:45;;;;;;;3.05;1.15;;;;;;;2.18;100.00;98272.44;6374206;27;20039;-75
2022/12/11 11:58:06;;;;;;;2.22;1.48;;;;;;;2.35;100.00;98281.81;6372918;27;20092;-75
2022/12/11 12:01:18;;;;;;;2.50;1.55;;;;;;;2.43;100.00;98284.81;6373897;27;20399;-77
2022/12/11 12:04:19;;;;;;;1.02;0.80;;;;;;;2.04;100.00;98283.50;6374022;27;20043;-76
2022/12/11 12:07:59;;;;;;;0.80;0.80;;;;;;;2.13;100.00;98284.75;6373860;27;20043;-77
2022/12/11 12:11:17;;;;;;;0.80;0.77;;;;;;;2.37;100.00;98269.69;6372318;27;20128;-76
2022/12/11 12:14:29;;;;;;;0.30;0.30;;;;;;;2.30;100.00;98269.19;6373618;27;20406;-76
2022/12/11 12:17:51;;;;;;;2.60;1.65;;;;;;;2.13;100.00;98271.88;6372618;27;20043;-75
2022/12/11 12:21:19;;;;;;;2.40;1.50;;;;;;;2.13;100.00;98271.88;6357970;27;20059;-75
2022/12/11 12:24:40;;;;;;;3.97;1.85;;;;;;;1.98;100.00;98266.66;6359304;27;20769;-75
2022/12/11 12:27:41;;;;;;;5.15;2.83;;;;;;;2.13;100.00;98279.59;6373010;27;20115;-75
2022/12/11 12:30:59;;;;;;;75.88;27.80;;;;;;;1.84;100.00;98286.31;6371979;27;20058;-74
2022/12/11 12:34:00;;;;;;;42.10;19.95;;;;;;;2.07;100.00;98308.22;6373370;27;20452;-75
2022/12/11 12:37:16;;;;;;;13.82;4.97;;;;;;;2.06;100.00;98309.97;6373149;27;20039;-75
2022/12/11 12:40:54;;;;;;;16.27;7.47;;;;;;;2.12;100.00;98307.06;6371769;27;20035;-75
2022/12/11 12:44:04;;;;;;;6.85;3.88;;;;;;;2.21;100.00;98314.28;6371832;27;20035;-74
2022/12/11 12:47:13;;;;;;;3.88;2.30;;;;;;;2.08;100.00;98307.31;6388799;27;20138;-74
2022/12/11 12:50:22;;;;;;;3.58;1.50;;;;;;;2.12;100.00;98312.22;6372673;27;20045;-74
2022/12/11 12:53:27;;;;;;;2.30;1.63;;;;;;;2.22;100.00;98317.69;6371520;27;20035;-74
2022/12/11 12:56:31;;;;;;;1.75;1.63;;;;;;;2.00;100.00;98328.31;6356158;27;20441;-74
2022/12/11 12:59:32;;;;;;;2.40;1.83;;;;;;;1.98;100.00;98322.44;6344868;28;20039;-74
2022/12/11 13:02:49;;;;;;;3.22;1.98;;;;;;;1.79;100.00;98322.53;6380454;27;20047;-75
2022/12/11 13:06:00;;;;;;;2.67;2.25;;;;;;;2.12;99.83;98319.94;6346022;28;20035;-74
2022/12/11 13:09:14;;;;;;;5.75;1.95;;;;;;;2.06;100.00;98334.84;6362768;27;20051;-74
2022/12/11 13:12:30;;;;;;;4.20;2.58;;;;;;;1.97;100.00;98337.00;6363002;27;20125;-74
2022/12/11 13:15:42;;;;;;;1.67;1.35;;;;;;;2.12;100.00;98337.94;6362877;27;20048;-75
2022/12/11 13:18:46;;;;;;;1.77;1.25;;;;;;;1.98;98.70;98330.97;6345793;28;20063;-75
2022/12/11 13:22:03;;;;;;;1.50;1.13;;;;;;;1.93;100.00;98326.97;6346821;28;20122;-74
2022/12/11 13:25:22;;;;;;;1.00;0.77;;;;;;;1.92;100.00;98346.72;6345324;28;20055;-75
2022/12/11 13:28:25;;;;;;;1.83;1.40;;;;;;;2.07;100.00;98349.41;6328682;28;20098;-76
2022/12/11 13:31:32;;;;;;;1.55;1.20;;;;;;;2.22;100.00;98349.41;6346782;28;20388;-76
2022/12/11 13:34:36;;;;;;;1.52;1.17;;;;;;;2.04;100.00;98355.53;6346899;28;20063;-76
2022/12/11 13:37:42;;;;;;;2.72;1.88;;;;;;;2.17;100.00;98373.72;6346571;28;20039;-76
2022/12/11 13:40:48;;;;;;;2.25;1.63;;;;;;;2.22;100.00;98372.56;6345540;28;20407;-76
2022/12/11 13:43:50;;;;;;;1.67;1.40;;;;;;;2.03;100.00;98376.19;6346609;28;20051;-77
2022/12/11 13:46:55;;;;;;;1.52;1.42;;;;;;;2.21;100.00;98385.50;6350812;28;20046;-76
2022/12/11 13:50:15;;;;;;;1.45;0.98;;;;;;;1.79;89.31;98389.41;6351229;28;20495;-76
2022/12/11 13:53:18;;;;;;;0.80;0.70;;;;;;;1.84;91.52;98381.47;6351879;28;20126;-76
2022/12/11 13:56:20;;;;;;;0.90;0.75;;;;;;;1.96;88.69;98396.28;6350514;28;20394;-76
2022/12/11 13:59:33;;;;;;;2.53;1.73;;;;;;;1.89;89.72;98400.88;6350396;28;20407;-76
2022/12/11 14:02:39;;;;;;;3.33;1.50;;;;;;;1.85;90.16;98403.69;6351383;28;20122;-76
2022/12/11 14:05:40;;;;;;;1.40;0.55;;;;;;;1.87;86.13;98404.44;6350530;28;20040;-76
2022/12/11 14:08:45;;;;;;;1.05;0.60;;;;;;;2.01;88.36;98397.66;6350000;28;20043;-76
2022/12/11 14:11:47;;;;;;;0.80;0.80;;;;;;;2.03;86.74;98384.75;6351349;28;20498;-76
2022/12/11 14:14:52;;;;;;;2.17;1.50;;;;;;;1.94;91.55;98374.94;6384551;27;20484;-76
2022/12/11 14:17:53;;;;;;;3.25;1.95;;;;;;;1.97;87.99;98374.78;6350067;28;20036;-76
2022/12/11 14:21:05;;;;;;;4.35;2.35;;;;;;;1.91;89.00;98369.94;6360266;27;20035;-76
2022/12/11 14:24:12;;;;;;;5.00;2.80;;;;;;;1.85;87.15;98389.09;6375382;27;20116;-76
2022/12/11 14:27:16;;;;;;;4.20;1.77;;;;;;;1.81;88.20;98406.44;6375246;27;20448;-76
2022/12/11 14:30:23;;;;;;;4.53;2.42;;;;;;;1.91;86.42;98413.69;6376403;27;20495;-76
2022/12/11 14:33:34;;;;;;;4.70;2.92;;;;;;;1.96;87.98;98422.00;6357747;27;20062;-76
2022/12/11 14:36:35;;;;;;;3.42;2.25;;;;;;;1.76;86.13;98420.44;6359690;27;20042;-76
2022/12/11 14:39:45;;;;;;;2.60;2.03;;;;;;;1.92;88.10;98426.47;6349254;28;20040;-76